createdAt,value
2018-07-03T00:00:59.041Z,3.27
2018-07-03T00:03:01.260Z,3.53
2018-07-03T00:05:03.665Z,3.40
2018-07-03T00:07:05.867Z,3.33
2018-07-03T00:09:08.734Z,3.10
2018-07-03T00:11:10.925Z,3.10
2018-07-03T00:13:13.098Z,3.43
2018-07-03T00:15:15.356Z,3.30
2018-07-03T00:17:18.512Z,3.00
2018-07-03T00:19:20.703Z,3.10
2018-07-03T00:21:22.945Z,2.93
2018-07-03T00:23:25.214Z,3.00
2018-07-03T00:25:27.475Z,2.70
2018-07-03T00:27:29.703Z,3.00
2018-07-03T00:29:31.933Z,3.10
2018-07-03T00:31:34.142Z,2.77
2018-07-03T00:33:36.372Z,3.10
2018-07-03T00:35:38.604Z,3.30
2018-07-03T00:37:41.613Z,2.83
2018-07-03T00:39:43.883Z,3.23
2018-07-03T00:41:46.082Z,3.23
2018-07-03T00:43:48.287Z,2.77
2018-07-03T00:45:50.594Z,3.20
2018-07-03T00:47:52.811Z,3.07
2018-07-03T00:49:55.206Z,3.03
2018-07-03T00:51:57.404Z,3.00
2018-07-03T00:53:59.624Z,3.10
2018-07-03T00:56:01.841Z,3.00
2018-07-03T00:58:04.209Z,3.20
2018-07-03T01:00:12.093Z,2.87
2018-07-03T01:02:14.286Z,2.90
2018-07-03T01:04:16.537Z,3.00
2018-07-03T01:06:18.771Z,2.53
2018-07-03T01:08:20.965Z,3.10
2018-07-03T01:10:23.186Z,3.10
2018-07-03T01:12:25.394Z,2.97
2018-07-03T01:14:27.579Z,3.13
2018-07-03T01:16:29.758Z,2.77
2018-07-03T01:18:31.929Z,2.80
2018-07-03T01:20:34.167Z,2.80
2018-07-03T01:22:36.604Z,2.97
2018-07-03T01:24:38.827Z,3.10
2018-07-03T01:26:41.039Z,2.80
2018-07-03T01:28:43.336Z,2.63
2018-07-03T01:30:45.538Z,2.70
2018-07-03T01:32:47.817Z,2.77
2018-07-03T01:34:50.035Z,2.50
2018-07-03T01:36:52.241Z,2.80
2018-07-03T01:38:54.619Z,2.93
2018-07-03T01:40:57.039Z,3.20
2018-07-03T01:42:59.246Z,2.73
2018-07-03T01:45:01.658Z,2.60
2018-07-03T01:47:03.883Z,2.60
2018-07-03T01:49:06.150Z,2.40
2018-07-03T01:51:08.396Z,2.87
2018-07-03T01:53:10.615Z,2.90
2018-07-03T01:55:12.798Z,2.40
2018-07-03T01:57:15.098Z,2.90
2018-07-03T01:59:17.472Z,2.30
2018-07-03T02:01:19.663Z,2.57
2018-07-03T02:03:21.886Z,2.63
2018-07-03T02:05:24.663Z,2.40
2018-07-03T02:07:26.897Z,2.60
2018-07-03T02:09:29.200Z,2.50
2018-07-03T02:11:31.466Z,2.90
2018-07-03T02:13:33.707Z,2.80
2018-07-03T02:15:35.898Z,2.20
2018-07-03T02:17:38.122Z,2.50
2018-07-03T02:19:40.282Z,2.57
2018-07-03T02:21:42.545Z,2.60
2018-07-03T02:23:44.763Z,2.40
2018-07-03T02:25:46.976Z,2.30
2018-07-03T02:27:49.156Z,2.50
2018-07-03T02:29:51.344Z,2.50
2018-07-03T02:31:53.537Z,2.50
2018-07-03T02:33:55.734Z,2.40
2018-07-03T02:35:57.933Z,2.50
2018-07-03T02:38:00.754Z,2.30
2018-07-03T02:40:02.951Z,2.40
2018-07-03T02:42:05.255Z,2.43
2018-07-03T02:44:07.457Z,2.40
2018-07-03T02:46:09.689Z,2.43
2018-07-03T02:48:11.870Z,2.23
2018-07-03T02:50:14.051Z,2.20
2018-07-03T02:52:16.275Z,2.40
2018-07-03T02:54:18.499Z,2.20
2018-07-03T02:56:20.677Z,2.30
2018-07-03T02:58:23.043Z,2.20
2018-07-03T03:00:25.344Z,2.60
2018-07-03T03:02:27.538Z,2.80
2018-07-03T03:04:29.733Z,2.23
2018-07-03T03:06:31.980Z,1.97
2018-07-03T03:08:34.206Z,2.20
2018-07-03T03:10:36.392Z,2.50
2018-07-03T03:12:38.623Z,2.20
2018-07-03T03:14:40.886Z,2.10
2018-07-03T03:16:43.095Z,2.00
2018-07-03T03:18:45.478Z,2.20
2018-07-03T03:20:47.669Z,2.30
2018-07-03T03:22:49.848Z,2.20
2018-07-03T03:24:52.078Z,2.23
2018-07-03T03:26:54.284Z,2.17
2018-07-03T03:28:56.670Z,2.30
2018-07-03T03:30:58.865Z,2.27
2018-07-03T03:33:01.094Z,2.10
2018-07-03T03:35:09.929Z,2.03
2018-07-03T03:37:12.163Z,2.17
2018-07-03T03:39:14.369Z,2.40
2018-07-03T03:41:16.595Z,2.13
2018-07-03T03:43:18.870Z,2.23
2018-07-03T03:45:21.081Z,2.40
2018-07-03T03:47:23.292Z,2.10
2018-07-03T03:49:25.514Z,2.10
2018-07-03T03:51:27.789Z,2.17
2018-07-03T03:53:29.992Z,2.00
2018-07-03T03:55:32.252Z,2.10
2018-07-03T03:57:34.419Z,1.93
2018-07-03T03:59:36.753Z,2.17
2018-07-03T04:01:38.980Z,2.30
2018-07-03T04:03:41.215Z,2.07
2018-07-03T04:05:43.422Z,2.13
2018-07-03T04:07:45.627Z,1.97
2018-07-03T04:09:47.911Z,2.20
2018-07-03T04:11:50.075Z,2.07
2018-07-03T04:13:52.467Z,2.20
2018-07-03T04:15:54.667Z,1.87
2018-07-03T04:17:56.847Z,2.30
2018-07-03T04:19:59.080Z,2.43
2018-07-03T04:22:01.305Z,2.43
2018-07-03T04:24:03.551Z,2.50
2018-07-03T04:26:05.777Z,1.83
2018-07-03T04:28:07.998Z,1.90
2018-07-03T04:30:10.264Z,2.20
2018-07-03T04:32:12.499Z,1.83
2018-07-03T04:34:14.702Z,2.17
2018-07-03T04:36:16.899Z,1.93
2018-07-03T04:38:19.530Z,1.80
2018-07-03T04:40:21.739Z,1.80
2018-07-03T04:42:23.967Z,2.10
2018-07-03T04:44:26.208Z,1.90
2018-07-03T04:46:28.395Z,1.90
2018-07-03T04:48:30.634Z,1.80
2018-07-03T04:50:32.970Z,2.30
2018-07-03T04:52:35.195Z,1.80
2018-07-03T04:54:37.456Z,1.73
2018-07-03T04:56:39.639Z,1.93
2018-07-03T04:58:42.489Z,1.70
2018-07-03T05:00:44.712Z,1.70
2018-07-03T05:02:46.926Z,2.00
2018-07-03T05:04:49.105Z,1.80
2018-07-03T05:06:51.342Z,1.90
2018-07-03T05:08:53.541Z,1.90
2018-07-03T05:10:55.709Z,2.00
2018-07-03T05:12:57.882Z,1.57
2018-07-03T05:15:00.080Z,1.60
2018-07-03T05:17:02.284Z,1.63
2018-07-03T05:19:04.514Z,2.00
2018-07-03T05:21:06.794Z,1.80
2018-07-03T05:23:09.101Z,1.70
2018-07-03T05:25:11.321Z,1.70
2018-07-03T05:27:13.576Z,1.93
2018-07-03T05:29:15.759Z,1.73
2018-07-03T05:31:17.945Z,1.97
2018-07-03T05:33:20.665Z,1.70
2018-07-03T05:35:22.859Z,1.87
2018-07-03T05:37:25.094Z,1.57
2018-07-03T05:39:27.313Z,2.00
2018-07-03T05:41:29.516Z,1.77
2018-07-03T05:43:32.060Z,1.80
2018-07-03T05:45:34.271Z,2.30
2018-07-03T05:47:36.486Z,2.30
2018-07-03T05:49:38.754Z,2.40
2018-07-03T05:51:41.025Z,2.00
2018-07-03T05:53:43.238Z,2.50
2018-07-03T05:55:45.450Z,2.37
2018-07-03T05:57:47.670Z,2.57
2018-07-03T05:59:49.899Z,2.50
2018-07-03T06:01:52.162Z,2.20
2018-07-03T06:03:54.402Z,2.30
2018-07-03T06:05:56.574Z,2.20
2018-07-03T06:07:58.887Z,2.50
2018-07-03T06:10:01.152Z,2.30
2018-07-03T06:12:03.378Z,2.00
2018-07-03T06:14:05.753Z,2.10
2018-07-03T06:16:07.952Z,2.20
2018-07-03T06:18:10.106Z,2.03
2018-07-03T06:20:12.280Z,2.20
2018-07-03T06:22:14.514Z,2.20
2018-07-03T06:24:16.719Z,2.20
2018-07-03T06:26:18.898Z,2.43
2018-07-03T06:28:21.099Z,2.30
2018-07-03T06:30:23.326Z,2.10
2018-07-03T06:32:25.523Z,2.30
2018-07-03T06:34:27.700Z,2.37
2018-07-03T06:36:29.875Z,2.60
2018-07-03T06:38:32.070Z,2.40
2018-07-03T06:40:34.381Z,2.20
2018-07-03T06:42:36.559Z,2.33
2018-07-03T06:44:38.761Z,2.20
2018-07-03T06:46:41.035Z,2.30
2018-07-03T06:48:43.247Z,2.30
2018-07-03T06:50:45.506Z,2.20
2018-07-03T06:52:47.736Z,2.43
2018-07-03T06:54:49.893Z,2.30
2018-07-03T06:56:52.264Z,2.30
2018-07-03T06:58:54.629Z,2.30
2018-07-03T07:00:56.847Z,2.30
2018-07-03T07:02:59.091Z,2.33
2018-07-03T07:05:01.608Z,2.20
2018-07-03T07:07:03.797Z,2.50
2018-07-03T07:09:07.006Z,2.40
2018-07-03T07:11:09.077Z,2.70
2018-07-03T07:13:11.263Z,2.43
2018-07-03T07:15:13.461Z,2.17
2018-07-03T07:17:15.732Z,2.07
2018-07-03T07:19:17.930Z,2.10
2018-07-03T07:21:20.121Z,2.33
2018-07-03T07:23:23.423Z,2.20
2018-07-03T07:25:25.550Z,1.87
2018-07-03T07:27:27.757Z,1.80
2018-07-03T07:29:31.257Z,2.40
2018-07-03T07:31:33.493Z,2.37
2018-07-03T07:33:37.789Z,2.17
2018-07-03T07:35:40.075Z,2.20
2018-07-03T07:37:42.480Z,2.20
2018-07-03T07:39:44.798Z,1.90
2018-07-03T07:41:47.079Z,1.90
2018-07-03T07:43:49.294Z,2.60
2018-07-03T07:45:52.842Z,2.37
2018-07-03T07:47:55.325Z,1.80
2018-07-03T07:49:57.551Z,1.53
2018-07-03T07:51:59.842Z,2.00
2018-07-03T07:54:02.146Z,2.00
2018-07-03T07:56:04.384Z,1.90
2018-07-03T07:58:06.640Z,1.60
2018-07-03T08:00:09.250Z,1.53
2018-07-03T08:02:12.178Z,1.40
2018-07-03T08:04:16.267Z,1.70
2018-07-03T08:06:18.482Z,1.87
2018-07-03T08:08:21.061Z,1.80
2018-07-03T08:10:23.305Z,1.77
2018-07-03T08:12:25.531Z,1.80
2018-07-03T08:14:27.757Z,1.90
2018-07-03T08:16:30.018Z,1.90
2018-07-03T08:18:32.475Z,1.60
2018-07-03T08:20:34.749Z,1.50
2018-07-03T08:22:37.021Z,1.47
2018-07-03T08:24:39.759Z,1.40
2018-07-03T08:26:42.050Z,1.50
2018-07-03T08:28:45.516Z,1.40
2018-07-03T08:30:47.875Z,1.70
2018-07-03T08:32:50.120Z,1.40
2018-07-03T08:34:52.711Z,1.70
2018-07-03T08:36:55.207Z,1.50
2018-07-03T08:38:57.502Z,1.50
2018-07-03T08:40:59.714Z,1.37
2018-07-03T08:43:01.965Z,1.33
2018-07-03T08:45:05.097Z,1.37
2018-07-03T08:47:09.436Z,1.60
2018-07-03T08:49:11.816Z,1.60
2018-07-03T08:51:14.071Z,1.73
2018-07-03T08:53:16.408Z,1.77
2018-07-03T08:55:18.668Z,1.60
2018-07-03T08:57:21.008Z,1.60
2018-07-03T08:59:23.227Z,1.70
2018-07-03T09:01:25.503Z,1.67
2018-07-03T09:03:27.753Z,1.30
2018-07-03T09:05:30.052Z,2.33
2018-07-03T09:07:32.425Z,2.40
2018-07-03T09:09:34.618Z,2.17
2018-07-03T09:11:36.875Z,2.30
2018-07-03T09:13:39.136Z,2.20
2018-07-03T09:15:41.559Z,2.50
2018-07-03T09:17:43.879Z,2.30
2018-07-03T09:19:46.102Z,1.97
2018-07-03T09:21:48.339Z,2.03
2018-07-03T09:23:50.532Z,2.30
2018-07-03T09:25:52.784Z,2.27
2018-07-03T09:27:54.960Z,2.40
2018-07-03T09:29:57.227Z,2.13
2018-07-03T09:31:59.436Z,2.70
2018-07-03T09:34:01.730Z,2.73
2018-07-03T09:36:04.023Z,2.23
2018-07-03T09:38:06.404Z,2.57
2018-07-03T09:40:08.667Z,1.83
2018-07-03T09:42:10.976Z,2.00
2018-07-03T09:44:13.207Z,1.70
2018-07-03T09:46:15.419Z,2.10
2018-07-03T09:48:17.623Z,2.13
2018-07-03T09:50:20.129Z,2.10
2018-07-03T09:52:22.499Z,2.10
2018-07-03T09:54:25.347Z,2.00
2018-07-03T09:56:27.626Z,1.77
2018-07-03T09:58:29.898Z,1.50
2018-07-03T10:00:37.534Z,1.80
2018-07-03T10:02:39.832Z,1.80
2018-07-03T10:04:42.300Z,1.67
2018-07-03T10:06:44.944Z,1.90
2018-07-03T10:08:47.267Z,2.30
2018-07-03T10:10:49.508Z,1.90
2018-07-03T10:12:51.935Z,1.70
2018-07-03T10:14:54.796Z,1.90
2018-07-03T13:00:43.543Z,2.23
2018-07-03T13:02:45.783Z,1.93
2018-07-03T13:04:48.057Z,1.63
2018-07-03T13:06:50.290Z,1.87
2018-07-03T13:08:52.544Z,1.60
2018-07-03T13:25:07.998Z,1.70
2018-07-03T14:11:54.201Z,2.40
2018-07-03T14:13:56.664Z,2.23
2018-07-03T14:15:58.898Z,2.57
2018-07-03T14:18:01.248Z,2.73
2018-07-03T14:20:03.499Z,2.60
2018-07-03T14:22:05.846Z,2.73
2018-07-03T14:24:08.075Z,2.87
2018-07-03T14:26:10.442Z,2.67
2018-07-03T15:00:58.932Z,2.70
2018-07-03T15:03:01.142Z,2.83
2018-07-03T15:05:03.369Z,3.03
2018-07-03T15:07:05.569Z,2.77
2018-07-03T15:25:17.693Z,3.40
2018-07-03T15:27:20.053Z,3.00
2018-07-03T15:29:22.293Z,2.73
2018-07-03T15:33:31.116Z,3.00
2018-07-03T15:35:33.447Z,2.70
2018-07-03T15:37:35.761Z,2.53
2018-07-03T15:39:37.996Z,2.77
2018-07-03T16:37:32.423Z,3.13
2018-07-03T16:39:43.057Z,3.03
2018-07-03T16:41:45.460Z,2.90
2018-07-03T16:43:47.769Z,3.07
2018-07-03T16:45:50.562Z,3.10
2018-07-03T16:47:52.756Z,3.30
2018-07-03T16:49:55.005Z,3.17
2018-07-03T16:51:57.256Z,2.80
2018-07-03T16:53:59.487Z,2.70
2018-07-03T16:56:01.733Z,3.10
2018-07-03T16:58:03.903Z,2.33
2018-07-03T17:00:06.132Z,2.43
2018-07-03T17:02:08.336Z,2.53
2018-07-03T17:04:10.591Z,2.47
2018-07-03T17:06:12.873Z,2.90
2018-07-03T17:08:15.096Z,3.20
2018-07-03T17:10:17.297Z,2.60
2018-07-03T17:12:19.478Z,2.80
2018-07-03T17:14:23.138Z,3.10
2018-07-03T17:16:30.110Z,2.60
2018-07-03T17:18:34.292Z,3.00
2018-07-03T17:20:37.363Z,2.83
2018-07-03T17:22:39.696Z,2.73
2018-07-03T17:24:43.070Z,3.07
2018-07-03T17:26:45.349Z,3.10
2018-07-03T17:28:47.562Z,2.70
2018-07-03T17:30:49.777Z,2.80
2018-07-03T17:32:51.969Z,2.80
2018-07-03T17:34:54.232Z,2.97
2018-07-03T17:36:56.397Z,2.90
2018-07-03T17:39:15.455Z,2.77
2018-07-03T17:41:23.355Z,3.17
2018-07-03T17:43:32.461Z,3.10
2018-07-03T17:45:40.968Z,2.90
2018-07-03T17:47:43.114Z,2.50
2018-07-03T17:49:45.294Z,2.87
2018-07-03T17:51:47.469Z,3.00
2018-07-03T17:53:49.649Z,2.70
2018-07-03T17:55:51.898Z,2.50
2018-07-03T17:57:54.979Z,2.77
2018-07-03T17:59:57.217Z,2.50
2018-07-03T18:01:59.479Z,2.70
2018-07-03T18:04:01.733Z,2.87
2018-07-03T18:06:04.891Z,3.03
2018-07-03T18:08:07.101Z,2.50
2018-07-03T18:10:36.635Z,2.87
2018-07-03T18:12:39.689Z,2.73
2018-07-03T18:14:43.051Z,2.83
2018-07-03T18:16:45.239Z,2.43
2018-07-03T18:18:52.990Z,2.47
2018-07-03T18:20:55.279Z,2.80
2018-07-03T18:22:57.645Z,2.60
2018-07-03T18:24:59.883Z,2.73
2018-07-03T18:27:02.086Z,3.00
2018-07-03T18:29:04.721Z,2.50
2018-07-03T18:31:07.407Z,2.40
2018-07-03T18:33:09.694Z,2.60
2018-07-03T18:35:11.957Z,2.70
2018-07-03T18:37:14.302Z,2.67
2018-07-03T18:39:16.489Z,2.57
2018-07-03T18:41:18.806Z,2.73
2018-07-03T18:43:21.082Z,2.70
2018-07-03T18:45:23.374Z,2.70
2018-07-03T18:47:25.776Z,2.50
2018-07-03T18:49:27.931Z,2.43
2018-07-03T18:51:30.171Z,2.43
2018-07-03T18:53:32.424Z,2.70
2018-07-03T18:55:35.635Z,2.50
2018-07-03T18:57:38.121Z,2.67
2018-07-03T18:59:40.567Z,2.63
2018-07-03T19:01:44.252Z,2.27
2018-07-03T19:03:47.190Z,2.60
2018-07-03T19:05:49.682Z,2.57
2018-07-03T19:07:52.419Z,2.23
2018-07-03T19:09:54.712Z,2.60
2018-07-03T19:11:56.990Z,2.47
2018-07-03T19:13:59.361Z,2.30
2018-07-03T19:16:01.587Z,2.13
2018-07-03T19:18:04.056Z,2.53
2018-07-03T19:20:06.835Z,2.47
2018-07-03T19:22:09.059Z,2.30
2018-07-03T19:24:11.310Z,2.40
2018-07-03T19:26:13.569Z,2.50
2018-07-03T19:28:15.902Z,2.50
2018-07-03T19:30:18.354Z,2.40
2018-07-03T19:32:20.535Z,2.60
2018-07-03T19:34:23.041Z,2.53
2018-07-03T19:36:25.545Z,2.20
2018-07-03T19:38:27.875Z,2.60
2018-07-03T19:40:30.188Z,2.27
2018-07-03T19:42:32.450Z,2.30
2018-07-03T19:44:34.747Z,2.33
2018-07-03T19:46:36.981Z,2.40
2018-07-03T19:48:39.338Z,2.53
2018-07-03T19:50:41.960Z,2.63
2018-07-03T19:52:44.325Z,2.50
2018-07-03T19:54:46.631Z,2.13
2018-07-03T19:56:48.856Z,2.50
2018-07-03T19:58:51.181Z,2.40
2018-07-03T20:00:54.588Z,2.30
2018-07-03T20:02:56.930Z,2.30
2018-07-03T20:04:59.202Z,2.40
2018-07-03T20:07:01.603Z,2.40
2018-07-03T20:09:05.887Z,2.33
2018-07-03T20:11:08.097Z,2.30
2018-07-03T20:13:12.030Z,2.50
2018-07-03T20:15:14.305Z,2.27
2018-07-03T20:17:16.623Z,2.60
2018-07-03T20:19:18.837Z,2.60
2018-07-03T20:21:21.734Z,2.27
2018-07-03T20:23:24.027Z,2.63
2018-07-03T20:25:26.234Z,1.97
2018-07-03T20:27:28.426Z,2.40
2018-07-03T20:29:30.649Z,2.10
2018-07-03T20:31:33.100Z,2.37
2018-07-03T20:33:35.385Z,2.40
2018-07-03T20:35:37.579Z,2.40
2018-07-03T20:37:45.467Z,2.47
2018-07-03T20:39:47.639Z,2.40
2018-07-03T20:41:49.920Z,2.87
2018-07-03T20:43:52.505Z,2.63
2018-07-03T20:45:54.728Z,2.57
2018-07-03T20:47:56.910Z,2.83
2018-07-03T20:49:59.761Z,2.40
2018-07-03T20:52:02.030Z,2.50
2018-07-03T20:54:04.859Z,2.90
2018-07-03T20:56:07.589Z,2.57
2018-07-03T20:58:09.943Z,2.70
2018-07-03T21:00:12.140Z,3.00
2018-07-03T21:02:14.383Z,3.30
2018-07-03T21:04:16.840Z,3.27
2018-07-03T21:06:21.040Z,3.10
2018-07-03T21:08:24.196Z,3.13
2018-07-03T21:10:27.650Z,3.13
2018-07-03T21:12:30.104Z,3.23
2018-07-03T21:14:33.013Z,3.07
2018-07-03T21:18:43.764Z,3.53
2018-07-03T21:20:47.724Z,3.40
2018-07-03T21:22:51.518Z,3.73
2018-07-03T21:24:54.699Z,3.60
2018-07-03T21:27:02.774Z,3.87
2018-07-03T21:29:05.255Z,3.53
2018-07-03T21:31:07.852Z,3.60
2018-07-03T21:33:10.502Z,3.50
2018-07-03T21:35:13.209Z,3.70
2018-07-03T21:37:15.974Z,3.70
2018-07-03T21:41:25.889Z,3.93
2018-07-03T21:43:29.287Z,4.03
2018-07-03T21:45:31.931Z,4.13
2018-07-03T21:47:34.438Z,4.23
2018-07-03T21:49:38.387Z,3.70
2018-07-03T21:51:45.223Z,4.37
2018-07-03T21:53:47.886Z,4.50
2018-07-03T21:55:50.358Z,4.23
2018-07-03T21:57:52.834Z,4.10
2018-07-03T21:59:55.450Z,3.87
2018-07-03T22:01:58.205Z,4.80
2018-07-03T22:04:01.966Z,4.50
2018-07-03T22:06:08.984Z,4.73
2018-07-03T22:08:12.451Z,5.03
2018-07-03T22:10:14.958Z,4.30
2018-07-03T22:12:17.468Z,4.30
2018-07-03T22:14:19.798Z,4.70
2018-07-03T22:16:22.312Z,5.00
2018-07-03T22:20:32.406Z,4.60
2018-07-03T22:22:34.932Z,4.70
2018-07-03T22:24:37.395Z,4.97
2018-07-03T22:26:39.985Z,5.13
2018-07-03T22:28:42.500Z,5.03
2018-07-03T22:30:45.026Z,4.50
2018-07-03T22:34:54.931Z,4.40
2018-07-03T22:36:57.491Z,4.70
2018-07-03T22:39:00.013Z,5.13
2018-07-03T22:41:02.473Z,5.57
2018-07-03T22:43:05.267Z,5.50
2018-07-03T22:45:07.759Z,5.10
2018-07-03T22:49:18.018Z,5.10
2018-07-03T22:51:20.712Z,5.40
2018-07-03T22:53:23.156Z,5.40
2018-07-03T22:55:25.581Z,4.87
2018-07-03T22:57:28.079Z,4.57
2018-07-03T22:59:30.421Z,4.97
2018-07-03T23:03:40.647Z,4.80
2018-07-03T23:05:43.219Z,5.30
2018-07-03T23:07:45.943Z,5.20
2018-07-03T23:09:48.558Z,5.57
2018-07-03T23:11:51.142Z,5.27
2018-07-03T23:13:53.670Z,5.03
2018-07-03T23:18:03.666Z,5.20
2018-07-03T23:20:06.145Z,4.67
2018-07-03T23:22:09.672Z,5.53
2018-07-03T23:24:12.176Z,5.00
2018-07-03T23:26:14.640Z,5.40
2018-07-03T23:28:17.121Z,5.40
2018-07-03T23:30:23.946Z,4.87
2018-07-03T23:32:26.367Z,5.00
2018-07-03T23:34:29.008Z,5.10
2018-07-03T23:36:31.565Z,4.90
2018-07-03T23:38:33.982Z,5.57
2018-07-03T23:40:36.623Z,4.97
2018-07-03T23:42:39.175Z,5.00
2018-07-03T23:46:54.168Z,4.93
2018-07-03T23:49:05.774Z,5.50
2018-07-03T23:53:27.189Z,5.07
2018-07-03T23:55:38.908Z,5.30
2018-07-03T23:57:46.834Z,5.37
2018-07-03T23:59:56.183Z,5.30
